Weather observations for the past three days for
Farmville
Metric (Imperial)
Date Time (edt) Wind (kph) Vis. (km) Weather Sky Cond. Temperature (ºC) Relative Humidity Wind Chill (°C) Heat Index (°C) Pressure Precipitation (cm)
Air Dwpt 6 hour altimeter (cm) sea level (mb) 1 hr 3 hr 6 hr
Max. Min.
04 21:55 Calm 16.09 Fair CLR 19 10.3 57% 75.95 0.0
04 21:35 Calm 16.09 Fair CLR 19.5 10.1 55% 75.92 0.0
04 21:15 Calm 16.09 Fair CLR 19.7 10.1 54% 75.9 0.0
04 20:55 Calm 16.09 Fair CLR 20.6 10 51% 75.9 0.0
04 20:35 Calm 16.09 Fair CLR 20.9 10 50% 75.9 0.0
04 20:15 Calm 16.09 Fair CLR 21.3 10.9 52% 75.9 0.0
04 19:55 Calm 16.09 Fair CLR 22.4 10.7 26.6 22.4 48% 75.9 0.0
04 19:35 Calm 16.09 Partly Cloudy SCT120 22.6 10.6 47% 75.87 0.0
04 19:15 SW 6 16.09 Fair CLR 23.6 10 42% 75.87 0.0
04 18:55 SW 13 16.09 Fair CLR 24.1 10 41% 25 75.9 0.0
04 18:35 SW 11 16.09 Fair CLR 25.3 10.1 38% 26 75.87 0.0
04 18:15 S 15 16.09 Fair CLR 25.6 10.4 38% 26 75.9 0.0
04 17:55 S 17 16.09 Fair CLR 25.7 9.9 37% 26 75.9 0.0
04 17:35 SW 11 16.09 Fair CLR 25 9.3 37% 26 75.9 0.0
04 17:15 SW 15 16.09 Fair CLR 25.5 9.3 36% 26 75.87 0.0
04 16:55 SW 13 G 26 16.09 Fair CLR 25.2 8.6 35% 26 75.87 0.0
04 16:35 SW 11 G 33 16.09 Partly Cloudy SCT120 25.5 8.6 34% 26 75.87 0.0
04 16:15 SW 17 G 30 16.09 Mostly Cloudy BKN120 26.4 8.6 32% 26 75.9 0.0
04 15:55 S 26 G 35 16.09 Partly Cloudy SCT080 SCT120 26.3 8.3 32% 26 75.87 0.0
04 15:35 S 28 16.09 Partly Cloudy SCT080 25.6 8.2 33% 26 75.9 0.0
04 15:15 S 17 G 30 16.09 Fair CLR 26 7.5 31% 26 75.92 0.0
04 14:55 S 26 G 31 16.09 Fair CLR 25.8 8 32% 26 75.92 0.0
04 14:35 SW 13 16.09 Fair CLR 25.2 7.5 32% 26 75.97 0.0
04 14:15 S 17 16.09 Fair CLR 25 7.7 33% 25 76 0.0
04 13:55 S 13 16.09 Fair CLR 25 8.5 25 11.4 35% 26 76.02 0.0
04 13:35 SW 11 16.09 Fair CLR 23.8 6.9 34% 76.02 0.0
04 13:15 SW 9 16.09 Fair CLR 23.5 6.7 34% 76.05 0.0
04 12:55 SW 7 16.09 Fair CLR 23.5 7 35% 76.07 0.0
04 12:35 SW 11 16.09 Fair CLR 22.6 7.1 37% 76.1 0.0
04 12:15 SW 13 16.09 Fair CLR 21.5 7 39% 76.12 0.0
04 11:55 SW 11 16.09 Fair CLR 21.9 6.7 37% 76.15 0.0
04 11:35 S 13 16.09 Fair CLR 20.9 6.7 40% 76.15 0.0
04 11:15 SW 13 16.09 Fair CLR 21.4 6.7 39% 76.15 0.0
04 10:55 S 11 16.09 Fair CLR 20.1 6.5 41% 76.15 0.0
04 10:35 SW 9 16.09 Fair CLR 20.6 6.9 41% 76.15 0.0
04 10:15 S 13 16.09 Fair CLR 19.3 6.1 42% 76.15 0.0
04 09:55 SW 7 16.09 Fair CLR 18.1 6.2 46% 76.17 0.0
04 09:35 S 6 16.09 Fair CLR 16.6 6.4 51% 76.2 0.0
04 09:15 S 6 16.09 Fair CLR 15.5 6.5 55% 76.2 0.0
04 08:55 S 7 16.09 Fair CLR 14.2 5.7 57% 76.2 0.0
04 08:35 SW 7 16.09 Fair CLR 13.1 5.6 61% 76.2 0.0
04 08:15 S 7 16.09 Fair CLR 12.2 5.4 63% 76.2 0.0
04 07:55 S 7 16.09 Fair CLR 11.3 5.4 11.3 7.2 67% 76.23 0.0
04 07:35 Calm 16.09 Partly Cloudy SCT110 10.2 6.2 76% 76.23 0.0
04 07:15 Calm 16.09 Mostly Cloudy BKN110 9.5 5.4 76% 76.23 0.0
04 06:55 Calm 16.09 Mostly Cloudy BKN110 8.5 4.9 78% 76.2 0.0
04 06:35 SW 6 16.09 Partly Cloudy SCT110 7.6 4.3 80% 76.2 0.0
04 06:15 SW 7 16.09 Partly Cloudy SCT085 SCT120 8 4.1 77% 7 76.2 0.0
04 05:55 Calm 16.09 Mostly Cloudy SCT085 BKN120 8 4.2 77% 76.2 0.0
04 05:35 Calm 16.09 Mostly Cloudy BKN120 8.8 4.3 74% 76.2 0.0
04 05:15 Calm 16.09 Mostly Cloudy SCT080 BKN100 9.3 4.7 73% 76.17 0.0
04 04:55 Calm 16.09 Overcast BKN080 BKN100 OVC120 9.3 4.9 74% 76.17 0.0
04 04:35 Calm 16.09 Overcast OVC080 9.6 4.5 71% 76.23 0.0
04 04:15 SW 6 16.09 Overcast SCT080 OVC100 8.7 6.1 84% 76.2 0.0
04 03:55 Calm 16.09 Overcast OVC090 8.7 6.2 84% 76.23 0.0
04 03:35 Calm 16.09 Overcast OVC090 8.9 4.9 76% 76.23 0.0
04 03:15 Calm 16.09 Overcast OVC100 8.5 5 79% 76.23 0.0
04 02:55 Calm 16.09 Overcast OVC100 7.8 6.1 89% 76.23 0.0
04 02:35 Calm 16.09 Overcast OVC110 7.9 5.5 85% 76.23 0.0
04 02:15 Calm 16.09 Overcast OVC120 8.7 4.7 76% 76.23 0.0
04 01:55 Calm 16.09 Overcast OVC120 8.8 4 14.1 6.5 72% 76.2 0.0
04 01:35 Calm 16.09 Overcast OVC120 8.7 3.5 70% 76.2 0.0
04 01:15 Calm 16.09 Mostly Cloudy BKN110 8.4 3.5 72% 76.23 0.0
04 00:55 Calm 16.09 Partly Cloudy SCT110 8.2 3.2 71% 76.2 0.0
04 00:35 Calm 16.09 Fair CLR 7.9 3.5 74% 76.23 0.0
04 00:15 Calm 16.09 Partly Cloudy SCT110 7.7 3.4 74% 76.2 0.0
03 23:55 Calm 16.09 Partly Cloudy SCT120 8 3.1 71% 76.23 0.0
03 23:35 Calm 16.09 Fair CLR 6.9 3.3 78% 76.2 0.0
03 23:15 Calm 16.09 Fair CLR 7.2 3.5 78% 76.2 0.0
03 22:55 Calm 16.09 Fair CLR 8 3.2 72% 76.23 0.0
03 22:35 Calm 16.09 Fair CLR 10.3 3 61% 76.2 0.0
03 22:15 Calm 16.09 Fair CLR 8.9 3.2 68% 76.2 0.0
03 21:55 Calm 16.09 Fair CLR 10.9 3 58% 76.17 0.0
03 21:35 Calm 16.09 Fair CLR 10.6 3.1 60% 76.15 0.0
03 21:15 Calm 16.09 Fair CLR 11.5 2.4 54% 76.15 0.0
03 20:55 Calm 16.09 Fair CLR 12.1 3 54% 76.15 0.0
03 20:35 Calm 16.09 Fair CLR 12.7 2.7 51% 76.15 0.0
03 20:15 Calm 16.09 Fair CLR 13.5 2 46% 76.15 0.0
03 19:55 Calm 16.09 Fair CLR 14.1 2.5 18.9 14.1 46% 76.12 0.0
03 19:35 Calm 16.09 Fair CLR 14.8 2.2 43% 76.12 0.0
03 19:15 SW 6 16.09 Fair CLR 16.1 1.8 38% 76.12 0.0
03 18:55 SW 6 16.09 Fair CLR 17.5 0.1 31% 76.12 0.0
03 18:35 SW 6 16.09 Fair CLR 18.4 0.2 29% 76.12 0.0
03 18:15 S 7 16.09 Fair CLR 18.5 0.1 29% 76.12 0.0
03 17:55 SW 7 16.09 Fair CLR 18.8 0.5 29% 76.15 0.0
03 17:35 W 6 16.09 Fair CLR 18.6 -0.5 28% 76.15 0.0
03 17:15 SW 9 16.09 Fair CLR 18.6 0.1 29% 76.15 0.0
03 16:55 NW 6 16.09 Fair CLR 18.4 -0.5 28% 76.15 0.0
03 16:35 SW 7 16.09 Fair CLR 18.1 -0.4 29% 76.17 0.0
03 16:15 Calm 16.09 Fair CLR 18.3 -0.3 29% 76.17 0.0
03 15:55 SW 6 G 26 16.09 Fair CLR 18 0 30% 76.2 0.0
03 15:35 W 9 16.09 Fair CLR 17.8 -0.1 30% 76.23 0.0
03 14:55 NW 6 16.09 Fair CLR 17.1 -0.3 31% 76.28 0.0
03 14:35 SW 9 16.09 Fair CLR 17.3 0.6 33% 76.28 0.0
03 14:15 W 7 16.09 Fair CLR 16.4 -0.2 33% 76.3 0.0
03 13:55 S 11 16.09 Fair CLR 16.4 0.3 16.4 8.4 34% 76.3 0.0
03 13:35 N 9 16.09 Fair CLR 16.1 0.2 34% 76.33 0.0
03 13:15 W 7 16.09 Fair CLR 16.3 0.2 34% 76.33 0.0
03 12:55 SW 11 16.09 Fair CLR 15.1 -0.3 35% 76.35 0.0
03 12:35 N 7 16.09 Fair CLR 14.9 -0.1 36% 76.38 0.0
03 12:15 W 9 16.09 Fair CLR 14.5 -0.3 37% 76.4 0.0
03 11:55 NW 9 16.09 Fair CLR 14.3 -0.5 36% 76.4 0.0
03 11:35 SW 13 16.09 Fair CLR 14.1 -0.3 37% 76.43 0.0
03 11:15 N 11 16.09 Fair CLR 13.1 -0.7 39% 76.43 0.0
03 10:55 NE 7 16.09 Fair CLR 12.9 -0.7 39% 76.43 0.0
03 10:35 NW 7 16.09 Fair CLR 13.1 0.2 41% 76.43 0.0
03 10:15 N 9 16.09 Fair CLR 11.8 0.4 46% 76.43 0.0
03 09:55 N 11 16.09 Fair CLR 11.9 0.2 45% 76.43 0.0
03 09:35 N 15 16.09 Fair CLR 11.9 0.8 47% 76.43 0.0
03 09:15 NW 9 16.09 Fair CLR 11.7 0.4 46% 76.4 0.0
03 08:55 N 6 16.09 Fair CLR 11 0.7 49% 76.4 0.0
03 08:35 N 7 16.09 Fair CLR 10.1 1.2 54% 76.38 0.0
03 08:15 Calm 16.09 Fair CLR 9.6 1.7 58% 76.38 0.0
03 07:55 Calm 16.09 Fair CLR 8.2 2.3 10 2.7 67% 76.35 0.0
03 07:35 Calm 16.09 Fair CLR 5.5 3.7 88% 76.35 0.0
03 07:15 Calm 16.09 Fair CLR 4.1 2.6 90% 76.35 0.0
03 06:55 Calm 16.09 Fair CLR 3 2.1 94% 76.3 0.0
03 06:35 Calm 16.09 Fair CLR 3.1 2 93% 76.28 0.0
03 06:15 Calm 16.09 Fair CLR 3.8 2 88% 76.23 0.0
03 05:55 Calm 16.09 Fair CLR 3.4 2 91% 76.23 0.0
03 05:35 Calm 16.09 Fair CLR 4.7 2.6 86% 76.2 0.0
03 05:15 Calm 16.09 Fair CLR 5.2 2.4 82% 76.17 0.0
03 04:55 Calm 16.09 Fair CLR 7.6 2.3 69% 76.17 0.0
03 04:35 Calm 16.09 Fair CLR 5.9 2.9 81% 76.15 0.0
03 04:15 Calm 16.09 Partly Cloudy SCT090 7.3 3.5 77% 76.15 0.0
03 03:55 Calm 16.09 Mostly Cloudy BKN090 7.6 4.4 80% 76.15 0.0
03 03:35 Calm 16.09 Overcast OVC090 8.5 4.1 74% 76.12 0.0
03 03:15 Calm 16.09 Overcast OVC090 9.3 3.9 69% 76.1 0.0
03 02:55 Calm 16.09 Overcast OVC090 9.4 5 74% 76.1 0.0
03 02:35 Calm 16.09 Overcast OVC090 9.8 4.9 72% 76.07 0.0
03 02:15 N 6 16.09 Overcast OVC090 9.5 5.9 78% 76.07 0.0
03 01:55 NE 7 16.09 Overcast OVC090 9.9 6.9 13.8 9.8 82% 9 76.07 0.0
03 01:35 Calm 16.09 Overcast OVC090 10.1 7.4 83% 76.05 0.0
03 01:15 Calm 16.09 Overcast OVC090 10.7 7 78% 76.05 0.0
03 00:55 Calm 16.09 Overcast BKN080 OVC090 10.9 7.3 79% 76.05 0.0
03 00:35 Calm 16.09 Overcast OVC070 10.5 8.4 87% 76.02 0.0
03 00:15 Calm 16.09 Overcast OVC070 10.8 8.1 84% 76.02 0.0
02 23:55 Calm 16.09 Overcast OVC070 10.5 8.4 87% 76.02 0.0
02 23:35 Calm 16.09 Light Rain SCT050 OVC070 11.2 9 86% 76.02 0.0
02 23:15 Calm 16.09 Rain OVC060 11.9 7.5 75% 76.02 0.0
02 22:55 Calm 16.09 Overcast BKN060 OVC070 11.8 7.4 75% 76.02 0.0
02 22:35 N 6 16.09 Overcast BKN060 OVC070 11.8 7.6 76% 76 0.0
02 22:15 N 6 16.09 Overcast BKN070 OVC110 11.6 7.2 75% 76 0.0
02 21:55 Calm 16.09 Overcast OVC110 11.2 6.8 75% 76 0.0
02 21:35 Calm 16.09 Overcast SCT070 OVC110 11.4 7.1 75% 76 0.0
02 21:15 Calm 16.09 Overcast SCT060 SCT080 OVC110 11.3 7.2 76% 75.97 0.0
02 20:55 W 6 16.09 Overcast SCT070 OVC080 12.6 7 69% 75.97 0.0
02 20:35 W 6 16.09 Overcast OVC070 13 6.5 65% 75.97 0.0
02 20:15 Calm 16.09 Overcast OVC070 13.2 7.4 68% 75.92 0.0
02 19:55 Calm 16.09 Mostly Cloudy BKN080 BKN095 13.9 5.9 17.9 13.9 59% 75.9 0.0
02 19:35 Calm 16.09 Partly Cloudy SCT090 14.1 5.6 57% 75.87 0.0
02 19:15 SE 7 16.09 Partly Cloudy SCT090 14.8 5.1 52% 75.84 0.0
02 18:55 SE 7 16.09 Fair CLR 15.3 5.1 51% 75.84 0.0
02 18:35 SE 6 16.09 Partly Cloudy SCT080 16.3 5.1 48% 75.84 0.0
02 18:15 SE 6 16.09 Partly Cloudy SCT080 16.5 4.5 45% 75.84 0.0
02 17:55 S 9 16.09 Fair CLR 16.8 4.7 45% 75.82 0.0
02 17:35 Calm 16.09 Partly Cloudy SCT075 16.7 4.6 45% 75.82 0.0
02 17:15 SE 6 16.09 Partly Cloudy SCT065 SCT075 17.1 4.6 44% 75.84 0.0
02 16:55 E 6 16.09 Mostly Cloudy BKN065 17.6 4.5 42% 75.84 0.0
02 16:35 Calm 16.09 Partly Cloudy SCT060 17.8 4.4 41% 75.84 0.0
02 16:15 SE 9 16.09 Fair CLR 16.6 4.2 44% 75.84 0.0
02 15:55 NE 7 16.09 Fair CLR 17.2 4.5 43% 75.87 0.0
02 15:35 NE 9 16.09 Fair CLR 16.6 4 43% 75.87 0.0
02 15:15 Calm 16.09 Partly Cloudy SCT080 16.8 3.4 41% 75.9 0.0
02 14:55 NE 9 16.09 Partly Cloudy SCT080 16.7 4.1 43% 75.92 0.0
02 14:35 N 6 16.09 Partly Cloudy SCT080 15.9 3.7 44% 75.95 0.0
02 14:15 NE 11 16.09 Mostly Cloudy SCT050 BKN080 16.7 4 43% 75.95 0.0
02 13:55 N 11 16.09 Overcast BKN050 OVC090 15.6 4.2 17.2 11.9 47% 75.97 0.0
02 13:35 E 11 16.09 Mostly Cloudy SCT048 BKN080 BKN095 16.1 4.3 46% 75.97 0.0
02 13:15 NE 19 16.09 Mostly Cloudy SCT044 BKN080 BKN095 16 4.9 48% 76.02 0.0
02 12:55 NE 15 16.09 Overcast SCT042 OVC080 15.7 5.2 50% 76.02 0.0
02 12:35 NE 13 16.09 Overcast OVC080 14.9 6.4 57% 76.07 0.0
02 12:15 E 13 16.09 Overcast OVC080 14.4 6.3 59% 76.1 0.0
02 11:55 NE 11 16.09 Overcast SCT034 BKN085 OVC090 13.6 6.4 62% 76.05 0.0
02 11:35 NE 15 16.09 Mostly Cloudy SCT036 SCT041 BKN085 14.6 6.8 60% 76.07 0.0
02 11:15 NE 13 16.09 Mostly Cloudy SCT029 SCT038 BKN085 14.6 7.7 64% 76.07 0.0
02 10:55 NE 15 16.09 Partly Cloudy SCT080 14.2 7.6 65% 76.05 0.0
02 10:35 N 13 16.09 Partly Cloudy SCT080 14 4.3 52% 76.05 0.0
02 10:15 N 9 16.09 Fair CLR 14.1 5.2 55% 76.07 0.0
02 09:55 N 9 16.09 Fair CLR 14.1 4.6 53% 76.05 0.0
02 09:35 NE 9 16.09 Partly Cloudy SCT070 14.4 8.6 68% 76.05 0.0
02 09:15 NE 9 16.09 Partly Cloudy SCT070 SCT090 13.6 9.4 76% 76.05 0.0
02 08:55 NE 9 16.09 Overcast BKN070 OVC090 13 9.2 78% 76.02 0.0
02 08:35 Calm 16.09 Partly Cloudy SCT090 12.5 9.3 81% 76.02 0.0
02 08:15 Calm 16.09 Mostly Cloudy BKN090 12.5 9.6 83% 76 0.0
02 07:55 Calm 16.09 Mostly Cloudy BKN090 12 9.1 12 9.6 83% 76 0.0
02 07:35 Calm 16.09 Fair CLR 10.5 9.5 94% 75.97 0.0
02 07:15 Calm 16.09 Fair CLR 10.3 9 92% 75.97 0.0
02 06:55 Calm 16.09 Fair CLR 9.6 8.5 93% 75.97 0.0
02 06:35 Calm 16.09 Fair CLR 10.4 8.4 88% 76 0.0
02 06:15 Calm 16.09 Fair CLR 11.1 8.3 83% 76 0.0
02 05:55 N 6 16.09 Fair CLR 11.2 8.3 83% 75.97 0.0
02 05:35 Calm 16.09 Fair CLR 11 8.4 84% 75.97 0.0
02 05:15 N 6 16.09 Fair CLR 11.2 8.4 83% 75.97 0.0
02 04:55 N 6 16.09 Fair CLR 11.1 8.5 84% 75.95 0.0
02 04:35 Calm 16.09 Fair CLR 11.2 8.9 86% 75.92 0.0
02 04:15 Calm 16.09 Fair CLR 11.8 9 83% 75.9 0.0
02 03:55 Calm 16.09 Fair CLR 10.6 9.1 91% 75.9 0.0
02 03:35 Calm 16.09 Fair CLR 11 9.3 89% 75.9 0.0
02 03:15 Calm 16.09 Fair CLR 11 9.3 89% 75.9 0.0
02 02:55 Calm 16.09 Fair CLR 11.1 9.4 89% 75.9 0.0
02 02:35 Calm 16.09 Fair CLR 10.7 9.3 91% 75.92 0.0
02 02:15 Calm 16.09 Fair CLR 10.8 9.3 91% 75.9 0.0
02 01:55 Calm 16.09 Fair CLR 11.5 9.5 16.2 11.3 88% 75.9 0.0
02 01:35 Calm 16.09 Fair CLR 11.6 9.5 87% 75.92 0.0
02 01:15 SW 7 16.09 Fair CLR 12.1 9.5 84% 75.92 0.0
02 00:55 SW 6 16.09 Fair CLR 12.4 9.5 83% 75.92 0.0
02 00:35 S 7 16.09 Fair CLR 12.7 9.5 81% 75.92 0.0
02 00:15 SW 7 16.09 Fair CLR 13.3 9.5 78% 75.92 0.0
01 23:55 S 11 16.09 Fair CLR 13.4 9.4 77% 75.92 0.0
01 23:35 S 13 16.09 Fair CLR 13.5 9.4 76% 75.92 0.0
01 23:15 S 9 16.09 Fair CLR 14 9.2 73% 75.92 0.0
01 22:55 S 13 16.09 Fair CLR 14.4 9.3 72% 75.92 0.0
01 22:35 S 13 16.09 Mostly Cloudy BKN110 14.3 9.5 73% 75.9 0.0
01 22:15 S 15 16.09 Overcast OVC110 14.5 9.5 72% 75.9 0.0
Date Time (edt) Wind (kph) Vis. (km) Weather Sky Cond. Air Dwpt Max. Min. Relative Humidity Wind Chill (°C) Heat Index (°C) altimeter (cm) sea level (mb) 1 hr 3 hr 6 hr
6 hour
Temperature (ºC) Pressure Precipitation (cm)